createdAt,value
2017-09-16T00:40:12.432Z,8.8
2017-09-16T00:40:32.723Z,8.7
2017-09-16T00:40:53.068Z,8.8
2017-09-16T00:41:13.424Z,8.8
2017-09-16T00:41:33.788Z,8.8
2017-09-16T00:41:54.161Z,8.8
2017-09-16T00:42:14.615Z,8.8
2017-09-16T00:42:34.984Z,8.7
2017-09-16T00:42:55.495Z,8.8
2017-09-16T00:43:15.898Z,8.8
2017-09-16T00:43:36.304Z,8.7
2017-09-16T00:43:56.616Z,8.8
2017-09-16T00:44:16.993Z,8.7
2017-09-16T00:44:37.438Z,8.7
2017-09-16T00:44:57.832Z,8.6
2017-09-16T00:45:18.243Z,8.7
2017-09-16T00:45:38.622Z,8.7
2017-09-16T00:45:59.088Z,8.7
2017-09-16T00:46:19.336Z,8.7
2017-09-16T00:46:39.727Z,8.7
2017-09-16T00:47:00.087Z,8.7
2017-09-16T00:47:20.560Z,8.7
2017-09-16T00:47:40.959Z,8.7
2017-09-16T00:48:01.379Z,8.7
2017-09-16T00:48:21.759Z,8.7
2017-09-16T00:48:42.139Z,8.6
2017-09-16T00:49:02.497Z,8.6
2017-09-16T00:49:23.009Z,8.6
2017-09-16T00:49:43.483Z,8.5
2017-09-16T00:50:03.906Z,8.6
2017-09-16T00:50:24.377Z,8.6
2017-09-16T00:50:44.762Z,8.6
2017-09-16T00:51:05.275Z,8.5
2017-09-16T00:51:25.709Z,8.6
2017-09-16T00:51:46.068Z,8.5
2017-09-16T00:52:06.487Z,8.5
2017-09-16T00:52:26.932Z,8.5
2017-09-16T00:52:47.329Z,8.5
2017-09-16T00:53:07.648Z,8.4
2017-09-16T00:53:27.963Z,8.6
2017-09-16T00:53:48.383Z,8.5
2017-09-16T00:54:08.760Z,8.5
2017-09-16T00:54:29.181Z,8.5
2017-09-16T00:54:49.528Z,8.5
2017-09-16T00:55:09.882Z,8.4
2017-09-16T00:55:30.318Z,8.5
2017-09-16T00:55:50.639Z,8.5
2017-09-16T00:56:11.058Z,8.4
2017-09-16T00:56:31.469Z,8.5
2017-09-16T00:56:51.882Z,8.5
2017-09-16T00:57:12.267Z,8.5
2017-09-16T00:57:32.637Z,8.5
2017-09-16T00:57:53.019Z,8.4
2017-09-16T00:58:13.483Z,8.4
2017-09-16T00:58:33.787Z,8.4
2017-09-16T00:58:54.217Z,8.5
2017-09-16T00:59:14.739Z,8.5
2017-09-16T00:59:35.179Z,8.5
2017-09-16T00:59:55.535Z,8.4
2017-09-16T01:00:15.820Z,8.5
2017-09-16T01:00:36.194Z,8.4
2017-09-16T01:00:56.492Z,8.5
2017-09-16T01:01:16.848Z,8.4
2017-09-16T01:01:37.144Z,8.6
2017-09-16T01:01:57.476Z,8.6
2017-09-16T01:02:17.829Z,8.5
2017-09-16T01:02:38.211Z,8.5
2017-09-16T01:02:58.775Z,8.6
2017-09-16T01:03:19.096Z,8.6
2017-09-16T01:42:59.675Z,8.2
2017-09-16T01:43:20.052Z,8.2
2017-09-16T01:43:40.515Z,8.2
2017-09-16T01:44:00.862Z,8.2
2017-09-16T01:44:21.156Z,8.1
2017-09-16T01:44:41.553Z,8.1
2017-09-16T01:45:02.042Z,8.2
2017-09-16T01:45:22.390Z,8.1
2017-09-16T01:45:42.844Z,8.1
2017-09-16T01:46:03.270Z,8.1
2017-09-16T01:46:23.651Z,8.1
2017-09-16T01:46:44.111Z,8.1
2017-09-16T01:47:04.473Z,8.1
2017-09-16T01:47:24.813Z,8.1
2017-09-16T01:47:45.333Z,8.1
2017-09-16T01:48:05.676Z,8
2017-09-16T01:48:26.133Z,8.1
2017-09-16T01:48:46.502Z,8.1
2017-09-16T01:49:06.859Z,8.1
2017-09-16T01:49:27.275Z,8
2017-09-16T01:49:47.709Z,8.2
2017-09-16T01:50:08.170Z,8.1
2017-09-16T01:50:28.426Z,8
2017-09-16T01:50:48.775Z,8
2017-09-16T01:51:09.087Z,8.2
2017-09-16T01:51:29.385Z,8
2017-09-16T01:51:49.767Z,8.1
2017-09-16T01:52:10.171Z,8.2
2017-09-16T01:52:30.645Z,8
2017-09-16T01:52:50.998Z,8.2
2017-09-16T01:53:11.516Z,8.1
2017-09-16T01:53:31.899Z,8.1
2017-09-16T01:53:52.438Z,8.1
2017-09-16T01:54:12.806Z,8.1
2017-09-16T01:54:33.207Z,8.1
2017-09-16T01:54:53.682Z,8.1
2017-09-16T01:55:14.109Z,8.1
2017-09-16T01:55:34.438Z,8.2
2017-09-16T01:55:54.740Z,8.1
2017-09-16T01:56:15.107Z,8.1
2017-09-16T01:56:35.442Z,8.1
2017-09-16T01:56:55.891Z,8.2
2017-09-16T01:57:16.286Z,8.1
2017-09-16T01:57:36.696Z,8.1
2017-09-16T01:57:57.119Z,8.2
2017-09-16T01:58:17.611Z,8.2
2017-09-16T01:58:38.667Z,8.1
2017-09-16T01:58:58.986Z,8.2
2017-09-16T01:59:19.371Z,8.1
2017-09-16T01:59:39.706Z,8.1
2017-09-16T02:00:00.200Z,8.1
2017-09-16T02:00:20.625Z,8.2
2017-09-16T02:00:41.023Z,8.1
2017-09-16T02:01:01.438Z,8.2
2017-09-16T02:01:21.815Z,8.1
2017-09-16T02:01:42.209Z,8
2017-09-16T02:02:02.548Z,8.1
2017-09-16T02:02:22.937Z,8
2017-09-16T02:02:43.433Z,8
2017-09-16T02:03:03.709Z,8
2017-09-16T02:03:24.001Z,8
2017-09-16T02:03:44.394Z,8
2017-09-16T02:04:04.745Z,8
2017-09-16T02:04:25.141Z,8
2017-09-16T02:04:45.685Z,8
2017-09-16T02:05:06.189Z,8
2017-09-16T02:05:26.556Z,8
2017-09-16T02:05:46.912Z,8
2017-09-16T02:06:07.330Z,8
2017-09-16T02:06:27.742Z,8
2017-09-16T02:06:48.092Z,7.9
2017-09-16T02:07:08.399Z,8
2017-09-16T02:07:28.878Z,8
2017-09-16T02:07:49.253Z,8
2017-09-16T02:08:09.706Z,8
2017-09-16T04:26:51.705Z,7.1
2017-09-16T04:27:12.004Z,7.1
2017-09-16T04:27:32.349Z,7.1
2017-09-16T04:27:52.886Z,7.1
2017-09-16T04:28:13.272Z,7.1
2017-09-16T04:28:33.657Z,7.1
2017-09-16T04:28:54.031Z,7.1
2017-09-16T04:29:14.324Z,7
2017-09-16T04:29:34.694Z,6.9
2017-09-16T04:29:55.081Z,7
2017-09-16T04:30:15.496Z,7
2017-09-16T04:30:35.828Z,7
2017-09-16T04:30:56.276Z,7
2017-09-16T04:31:16.687Z,7
2017-09-16T04:31:37.002Z,6.9
2017-09-16T04:31:57.421Z,7
2017-09-16T04:32:17.791Z,6.9
2017-09-16T04:32:38.119Z,6.9
2017-09-16T04:32:58.511Z,7
2017-09-16T04:33:19.085Z,6.9
2017-09-16T04:33:39.526Z,7
2017-09-16T04:33:59.922Z,6.9
2017-09-16T04:34:20.261Z,7
2017-09-16T04:34:40.677Z,6.9
2017-09-16T04:35:01.089Z,6.9
2017-09-16T04:35:21.492Z,7
2017-09-16T04:35:41.855Z,6.9
2017-09-16T04:36:02.198Z,7
2017-09-16T04:36:22.487Z,6.9
2017-09-16T04:36:42.845Z,6.9
2017-09-16T04:37:03.247Z,7
2017-09-16T04:37:23.573Z,6.8
2017-09-16T04:37:43.950Z,6.8
2017-09-16T04:38:04.380Z,6.9
2017-09-16T05:00:31.669Z,7.3
2017-09-16T05:00:52.270Z,7.3
2017-09-16T05:01:12.837Z,7.4
2017-09-16T07:05:02.538Z,10.2
2017-09-16T07:05:22.951Z,10.1
2017-09-16T07:05:43.418Z,10.2
2017-09-16T07:06:03.837Z,10.1
2017-09-16T07:06:24.288Z,10.1
2017-09-16T07:06:44.672Z,10.2
2017-09-16T07:07:05.040Z,10.1
2017-09-16T07:07:25.417Z,10.2
2017-09-16T07:07:45.784Z,10.2
2017-09-16T07:08:06.173Z,10.2
2017-09-16T07:08:26.695Z,10.2
2017-09-16T07:08:47.253Z,10.2
2017-09-16T07:09:07.607Z,10.3
2017-09-16T07:09:28.114Z,10.3
2017-09-16T07:09:48.533Z,10.3
2017-09-16T07:10:08.980Z,10.2
2017-09-16T07:10:29.481Z,10.3
2017-09-16T07:10:49.909Z,10.3
2017-09-16T07:11:10.474Z,10.4
2017-09-16T07:11:30.916Z,10.4
2017-09-16T07:11:51.435Z,10.3
2017-09-16T07:12:13.203Z,10.4
2017-09-16T07:12:36.811Z,10.4
2017-09-16T07:12:58.739Z,10.3
2017-09-16T07:13:19.806Z,10.4
2017-09-16T07:13:42.730Z,10.3
2017-09-16T07:14:04.646Z,10.3
2017-09-16T07:14:25.509Z,10.4
2017-09-16T07:14:47.460Z,10.4
2017-09-16T07:15:09.189Z,10.4
2017-09-16T07:15:30.522Z,10.3
2017-09-16T07:15:51.393Z,10.3
2017-09-16T07:16:12.552Z,10.4
2017-09-16T07:16:33.565Z,10.4
2017-09-16T07:16:55.488Z,10.5
2017-09-16T07:17:16.561Z,10.5
2017-09-16T07:17:38.213Z,10.4
2017-09-16T07:18:00.280Z,10.4
2017-09-16T07:18:22.225Z,10.4
2017-09-16T07:18:43.558Z,10.5
2017-09-16T07:19:07.414Z,10.5
2017-09-16T07:19:31.552Z,10.5
2017-09-16T07:19:53.091Z,10.5
2017-09-16T07:20:14.280Z,10.5
2017-09-16T07:20:35.820Z,10.5
2017-09-16T07:20:56.820Z,10.5
2017-09-16T07:21:18.259Z,10.5
2017-09-16T07:21:39.224Z,10.5
2017-09-16T07:22:00.373Z,10.6
2017-09-16T07:22:21.198Z,10.5
2017-09-16T07:22:42.105Z,10.5
2017-09-16T07:23:03.886Z,10.5
2017-09-16T07:23:25.838Z,10.6
2017-09-16T07:23:46.405Z,10.6
2017-09-16T07:24:08.632Z,10.6
2017-09-16T07:24:30.486Z,10.7
2017-09-16T07:24:51.497Z,10.5
2017-09-16T07:25:13.006Z,10.7
2017-09-16T07:25:35.289Z,10.7
2017-09-16T07:25:56.447Z,10.6
2017-09-16T07:26:17.476Z,10.8
2017-09-16T07:26:39.123Z,10.7
2017-09-16T07:27:00.143Z,10.7
2017-09-16T07:27:22.143Z,10.7
2017-09-16T07:27:45.252Z,10.7
2017-09-16T07:28:07.422Z,10.7
2017-09-16T07:28:29.635Z,10.7
2017-09-16T07:28:51.652Z,10.7
2017-09-16T07:29:14.060Z,10.8
2017-09-16T07:29:35.990Z,10.8
2017-09-16T07:29:57.008Z,10.7
2017-09-16T07:30:18.648Z,10.8
2017-09-16T07:30:40.004Z,10.8
2017-09-16T07:31:01.037Z,10.8
2017-09-16T07:31:23.134Z,10.8
2017-09-16T07:31:44.108Z,10.9
2017-09-16T07:32:05.739Z,10.8
2017-09-16T07:32:26.616Z,10.8
2017-09-16T07:32:48.135Z,10.9
2017-09-16T07:33:09.560Z,10.9
2017-09-16T07:33:31.660Z,10.8
2017-09-16T07:33:52.559Z,10.9
2017-09-16T07:34:13.616Z,10.9
2017-09-16T07:34:36.587Z,10.8
2017-09-16T07:34:57.600Z,10.9
2017-09-16T07:35:18.856Z,10.9
2017-09-16T07:35:40.090Z,10.9
2017-09-16T07:36:01.604Z,10.9
2017-09-16T07:36:22.611Z,10.9
2017-09-16T07:36:44.005Z,11
2017-09-16T07:37:05.122Z,10.9
2017-09-16T07:37:26.682Z,10.8
2017-09-16T07:37:48.485Z,11.1
2017-09-16T07:38:10.604Z,11
2017-09-16T07:38:31.471Z,11
2017-09-16T07:38:52.740Z,11
2017-09-16T07:39:14.526Z,11.1
2017-09-16T07:39:36.349Z,11.1
2017-09-16T07:39:57.239Z,11.1
2017-09-16T07:40:19.077Z,11
2017-09-16T07:40:40.983Z,11.1
2017-09-16T07:41:02.665Z,11
2017-09-16T07:41:24.648Z,11.1
2017-09-16T07:41:46.264Z,11.1
2017-09-16T07:42:07.278Z,11.1
2017-09-16T07:42:28.264Z,11.1
2017-09-16T07:42:49.321Z,11.2
2017-09-16T07:43:10.156Z,11.1
2017-09-16T07:43:31.231Z,11.1
2017-09-16T07:43:54.916Z,11.2
2017-09-16T07:44:16.036Z,11.2
2017-09-16T07:44:37.388Z,11.2
2017-09-16T07:44:59.264Z,11.2
2017-09-16T07:45:22.710Z,11.3
2017-09-16T07:45:43.699Z,11.3
2017-09-16T07:46:04.967Z,11.3
2017-09-16T07:46:26.055Z,11.3
2017-09-16T07:46:47.130Z,11.3
2017-09-16T07:47:08.398Z,11.3
2017-09-16T07:47:29.560Z,11.3
2017-09-16T07:47:50.591Z,11.4
2017-09-16T07:48:12.492Z,11.3
2017-09-16T07:48:34.126Z,11.4
2017-09-16T07:48:55.850Z,11.4
2017-09-16T07:49:17.668Z,11.3
2017-09-16T07:49:38.614Z,11.3
2017-09-16T07:49:59.669Z,11.4
2017-09-16T07:50:20.750Z,11.4
2017-09-16T07:50:42.947Z,11.3
2017-09-16T07:51:05.989Z,11.4
2017-09-16T07:51:26.900Z,11.3
2017-09-16T07:51:48.979Z,11.4
2017-09-16T07:52:09.895Z,11.3
2017-09-16T07:52:32.590Z,11.4
2017-09-16T07:52:53.595Z,11.3
2017-09-16T07:53:14.796Z,11.3
2017-09-16T07:53:37.475Z,11.3
2017-09-16T07:53:58.752Z,11.3
2017-09-16T07:54:21.631Z,11.3
2017-09-16T07:54:42.275Z,11.3
2017-09-16T07:55:03.865Z,11.3
2017-09-16T07:55:26.537Z,11.3
2017-09-16T07:55:48.623Z,11.3
2017-09-16T07:56:12.671Z,11.4
2017-09-16T07:56:36.442Z,11.3
2017-09-16T07:57:01.447Z,11.4
2017-09-16T07:57:23.392Z,11.4
2017-09-16T07:57:47.107Z,11.4
2017-09-16T07:58:11.447Z,11.4
2017-09-16T07:58:34.976Z,11.4
2017-09-16T07:58:59.064Z,11.4
2017-09-16T07:59:22.988Z,11.5
2017-09-16T07:59:44.781Z,11.5
2017-09-16T08:00:06.702Z,11.5
2017-09-16T08:00:27.990Z,11.5
2017-09-16T08:00:48.982Z,11.6
2017-09-16T08:01:10.604Z,11.5
2017-09-16T08:01:32.551Z,11.6
2017-09-16T08:01:55.023Z,11.6
2017-09-16T08:02:16.569Z,11.6
2017-09-16T08:02:38.588Z,11.7
2017-09-16T08:02:59.517Z,11.7
2017-09-16T08:03:20.662Z,11.7
2017-09-16T08:03:42.333Z,11.6
2017-09-16T08:04:04.152Z,11.7
2017-09-16T08:04:27.897Z,11.7
2017-09-16T08:04:49.179Z,11.7
2017-09-16T08:05:13.035Z,11.8
2017-09-16T08:05:34.628Z,11.8
2017-09-16T08:05:56.488Z,11.8
2017-09-16T08:06:18.452Z,11.8
2017-09-16T08:06:39.484Z,11.8
2017-09-16T08:07:00.994Z,11.9
2017-09-16T08:07:22.234Z,11.8
2017-09-16T08:07:45.995Z,11.8
2017-09-16T08:08:07.115Z,11.9
2017-09-16T08:08:28.401Z,11.8
2017-09-16T08:08:49.495Z,11.8
2017-09-16T08:09:10.682Z,11.8
2017-09-16T08:09:31.647Z,11.8
2017-09-16T08:09:52.639Z,11.8
2017-09-16T08:10:13.579Z,11.8
2017-09-16T08:10:37.460Z,11.8
2017-09-16T08:10:59.085Z,11.8
2017-09-16T08:11:23.499Z,11.8
2017-09-16T08:11:44.809Z,11.8
2017-09-16T08:12:07.409Z,11.9
2017-09-16T08:12:29.102Z,11.8
2017-09-16T08:12:50.281Z,11.8
2017-09-16T08:13:11.151Z,11.8
2017-09-16T08:13:33.278Z,11.7
2017-09-16T08:13:54.416Z,11.7
2017-09-16T08:14:16.408Z,11.7
2017-09-16T08:14:37.285Z,11.6
2017-09-16T08:14:59.083Z,11.6
2017-09-16T08:15:20.767Z,11.7
2017-09-16T08:15:42.203Z,11.7
2017-09-16T08:16:02.913Z,11.7
2017-09-16T08:16:25.018Z,11.7
2017-09-16T08:16:46.257Z,11.7
2017-09-16T08:17:08.218Z,11.6
2017-09-16T08:17:29.655Z,11.6
2017-09-16T08:17:51.204Z,11.6
2017-09-16T08:18:12.441Z,11.6
2017-09-16T08:18:35.142Z,11.6
2017-09-16T08:18:58.151Z,11.6
2017-09-16T08:19:18.910Z,11.6
2017-09-16T08:19:41.484Z,11.6
2017-09-16T08:20:03.999Z,11.5
2017-09-16T08:20:24.705Z,11.6
2017-09-16T08:20:45.720Z,11.6
2017-09-16T08:21:07.074Z,11.6
2017-09-16T08:21:28.880Z,11.6
2017-09-16T08:21:50.139Z,11.5
2017-09-16T08:22:10.988Z,11.6
2017-09-16T08:22:31.946Z,11.5
2017-09-16T08:22:52.989Z,11.4
2017-09-16T08:23:13.690Z,11.5
2017-09-16T08:23:34.676Z,11.5
2017-09-16T08:23:55.571Z,11.6
2017-09-16T08:24:16.281Z,11.6
2017-09-16T08:24:38.116Z,11.5
2017-09-16T08:24:59.221Z,11.6
2017-09-16T08:25:20.218Z,11.5
2017-09-16T08:25:41.298Z,11.5
2017-09-16T08:26:02.574Z,11.5
2017-09-16T08:26:25.402Z,11.5
2017-09-16T08:26:46.551Z,11.5
2017-09-16T08:27:08.029Z,11.6
2017-09-16T08:27:30.058Z,11.5
2017-09-16T08:27:50.886Z,11.6
2017-09-16T08:28:11.972Z,11.5
2017-09-16T08:28:33.002Z,11.6
2017-09-16T08:28:54.023Z,11.6
2017-09-16T08:29:14.771Z,11.6
2017-09-16T08:29:35.995Z,11.6
2017-09-16T08:29:57.184Z,11.6
2017-09-16T08:30:18.347Z,11.6
2017-09-16T08:30:39.541Z,11.7
2017-09-16T08:31:00.759Z,11.7
2017-09-16T08:31:21.461Z,11.6
2017-09-16T08:31:43.466Z,11.6
2017-09-16T08:32:04.977Z,11.5
2017-09-16T08:32:26.886Z,11.6
2017-09-16T08:32:48.140Z,11.6
2017-09-16T08:33:09.261Z,11.6
2017-09-16T08:33:30.441Z,11.6
2017-09-16T08:33:51.161Z,11.7
2017-09-16T08:34:12.321Z,11.5
2017-09-16T08:34:33.636Z,11.6
2017-09-16T08:34:54.718Z,11.6
2017-09-16T08:35:15.690Z,11.6
2017-09-16T08:35:36.863Z,11.6
2017-09-16T08:35:58.655Z,11.5
2017-09-16T08:36:20.516Z,11.6
2017-09-16T08:36:42.254Z,11.6
2017-09-16T08:37:04.022Z,11.5
2017-09-16T08:37:25.144Z,11.6
2017-09-16T08:37:49.183Z,11.6
2017-09-16T08:38:10.161Z,11.5
2017-09-16T08:38:30.784Z,11.7
2017-09-16T08:38:52.109Z,11.7
2017-09-16T08:39:13.375Z,11.7
2017-09-16T08:39:35.383Z,11.8
2017-09-16T08:39:56.574Z,11.7
2017-09-16T08:40:19.325Z,11.7
2017-09-16T08:40:40.374Z,11.7
2017-09-16T08:41:01.880Z,11.6
2017-09-16T08:41:22.982Z,11.7
2017-09-16T08:41:44.030Z,11.7
2017-09-16T08:42:05.136Z,11.6
2017-09-16T08:42:26.177Z,11.7
2017-09-16T08:42:48.023Z,11.7
2017-09-16T08:43:09.006Z,11.7
2017-09-16T08:43:30.192Z,11.7
2017-09-16T08:43:51.368Z,11.8
2017-09-16T08:44:12.018Z,11.7
2017-09-16T08:44:33.121Z,11.7
2017-09-16T08:44:54.918Z,11.8
2017-09-16T08:45:16.808Z,11.7
2017-09-16T08:45:38.048Z,11.6
2017-09-16T08:45:59.990Z,11.7
2017-09-16T08:46:21.037Z,11.7
2017-09-16T08:46:42.262Z,11.7
2017-09-16T08:47:03.565Z,11.7
2017-09-16T08:47:24.614Z,11.7
2017-09-16T08:47:45.837Z,11.7
2017-09-16T08:48:07.740Z,11.6
2017-09-16T08:48:29.391Z,11.8
2017-09-16T08:48:50.349Z,11.6
2017-09-16T08:49:13.160Z,11.7
2017-09-16T08:49:34.167Z,11.6
2017-09-16T08:49:55.258Z,11.7
2017-09-16T08:50:16.436Z,11.6
2017-09-16T08:50:37.462Z,11.7
2017-09-16T08:50:58.467Z,11.6
2017-09-16T08:51:19.479Z,11.8
2017-09-16T08:51:40.670Z,11.7
2017-09-16T08:52:01.054Z,11.6
2017-09-16T08:52:21.527Z,11.8
2017-09-16T08:52:42.009Z,11.8
2017-09-16T08:53:02.351Z,11.7
2017-09-16T08:53:22.808Z,11.8
2017-09-16T08:53:43.154Z,11.7
2017-09-16T08:54:03.639Z,11.7
2017-09-16T08:54:23.985Z,11.7
2017-09-16T08:54:44.430Z,11.8
2017-09-16T08:55:04.763Z,11.8
2017-09-16T08:55:25.127Z,11.8
2017-09-16T08:55:45.628Z,11.8
2017-09-16T08:56:06.003Z,11.8
2017-09-16T08:56:26.443Z,11.9
2017-09-16T08:56:46.888Z,11.9
2017-09-16T08:57:07.330Z,12
2017-09-16T08:57:27.653Z,11.9
2017-09-16T08:57:48.120Z,11.9
2017-09-16T08:58:08.501Z,12
2017-09-16T08:58:29.659Z,12
2017-09-16T08:58:50.158Z,12
2017-09-16T08:59:10.674Z,12
2017-09-16T08:59:31.136Z,12
2017-09-16T08:59:51.837Z,12
2017-09-16T09:00:13.366Z,12.2
2017-09-16T09:00:35.261Z,12.1
2017-09-16T09:00:56.269Z,12.1
2017-09-16T09:01:17.424Z,12.1
2017-09-16T09:01:38.488Z,12.1
2017-09-16T09:01:59.508Z,12.2
2017-09-16T09:02:20.810Z,12.2
2017-09-16T09:02:43.643Z,12.2
2017-09-16T09:03:04.764Z,12.3
2017-09-16T09:03:26.224Z,12.3
2017-09-16T09:03:48.300Z,12.3
2017-09-16T09:04:10.534Z,12.3
2017-09-16T09:04:31.298Z,12.4
2017-09-16T09:04:52.370Z,12.4
2017-09-16T09:05:14.538Z,12.3
2017-09-16T09:05:35.782Z,12.4
2017-09-16T09:05:57.606Z,12.4
2017-09-16T09:06:18.923Z,12.5
2017-09-16T09:06:40.234Z,12.5
2017-09-16T09:07:01.598Z,12.4
2017-09-16T09:07:22.629Z,12.5
2017-09-16T09:07:43.648Z,12.4
2017-09-16T09:08:04.646Z,12.5
2017-09-16T09:08:26.555Z,12.4
2017-09-16T09:08:48.265Z,12.6
2017-09-16T09:09:09.255Z,12.5
2017-09-16T09:09:31.225Z,12.6
2017-09-16T09:09:52.467Z,12.5
2017-09-16T09:10:13.778Z,12.5
2017-09-16T09:10:35.029Z,12.6
2017-09-16T09:10:56.548Z,12.5
2017-09-16T09:11:17.577Z,12.6
2017-09-16T09:11:38.372Z,12.6
2017-09-16T09:11:59.114Z,12.5
2017-09-16T09:12:20.427Z,12.5
2017-09-16T09:12:42.122Z,12.6
2017-09-16T09:13:06.030Z,12.6
2017-09-16T09:13:27.637Z,12.7
2017-09-16T09:13:48.637Z,12.7
2017-09-16T09:14:10.008Z,12.7
2017-09-16T09:14:31.043Z,12.7
2017-09-16T09:14:52.336Z,12.7
2017-09-16T09:15:13.764Z,12.7
2017-09-16T09:15:35.079Z,12.7
2017-09-16T09:15:56.931Z,12.7
2017-09-16T09:16:19.042Z,12.7
2017-09-16T09:16:41.277Z,12.7
2017-09-16T09:17:02.134Z,12.7
2017-09-16T09:17:22.962Z,12.7
2017-09-16T09:17:44.057Z,12.7
2017-09-16T09:18:05.230Z,12.7
2017-09-16T09:18:27.891Z,12.8
2017-09-16T09:18:48.791Z,12.7
2017-09-16T09:19:10.138Z,12.8
2017-09-16T09:19:32.070Z,12.7
2017-09-16T09:19:55.185Z,12.8
2017-09-16T09:20:16.926Z,12.8
2017-09-16T09:20:38.311Z,12.9
2017-09-16T09:21:00.485Z,12.8
2017-09-16T09:21:21.775Z,12.9
2017-09-16T09:21:42.837Z,12.8
2017-09-16T09:22:03.806Z,12.8
2017-09-16T09:22:25.896Z,12.9
2017-09-16T09:22:46.314Z,12.9
2017-09-16T09:23:06.761Z,12.9
2017-09-16T09:23:27.273Z,12.9
2017-09-16T09:23:47.842Z,12.9
2017-09-16T09:24:08.478Z,13
2017-09-16T09:24:29.082Z,12.9
2017-09-16T09:24:49.549Z,13
2017-09-16T09:25:09.985Z,13
2017-09-16T09:25:30.378Z,12.9
2017-09-16T09:25:50.744Z,13
2017-09-16T09:26:11.127Z,13
2017-09-16T09:26:31.477Z,13
2017-09-16T09:26:51.902Z,13
2017-09-16T09:27:12.245Z,13
2017-09-16T09:27:32.623Z,13
2017-09-16T09:27:53.068Z,13
2017-09-16T09:28:13.925Z,13
2017-09-16T09:28:34.341Z,13
2017-09-16T09:28:54.848Z,13
2017-09-16T09:29:15.319Z,13.1
2017-09-16T09:29:35.775Z,13
2017-09-16T09:29:56.188Z,13
2017-09-16T09:30:16.631Z,13
2017-09-16T09:30:37.136Z,13.1
2017-09-16T09:30:57.558Z,13
2017-09-16T09:31:18.046Z,13
2017-09-16T09:31:38.429Z,13.1
2017-09-16T09:31:58.834Z,13
2017-09-16T09:32:19.251Z,13.1
2017-09-16T09:32:39.734Z,13.1
2017-09-16T09:33:00.049Z,13.1
2017-09-16T09:33:20.492Z,13.1
2017-09-16T09:33:40.976Z,13.1
2017-09-16T09:34:01.526Z,13.1
2017-09-16T09:34:21.993Z,13.1
2017-09-16T09:34:42.505Z,13.1
2017-09-16T09:35:02.913Z,13.2
2017-09-16T09:35:23.267Z,13.2
2017-09-16T09:35:43.681Z,13.1
2017-09-16T09:36:04.010Z,13.1
2017-09-16T09:36:25.123Z,13.1
2017-09-16T09:36:45.598Z,13.1
2017-09-16T09:37:06.149Z,13.1
2017-09-16T09:37:26.557Z,13.1
2017-09-16T09:37:47.010Z,13.1
2017-09-16T09:38:07.564Z,13.2
2017-09-16T09:38:27.988Z,13.1
2017-09-16T09:38:48.524Z,13.1
2017-09-16T09:39:09.035Z,13.2
2017-09-16T09:39:29.550Z,13.2
2017-09-16T09:39:49.943Z,13.3
2017-09-16T09:40:10.307Z,13.3
2017-09-16T09:40:30.649Z,13.2
2017-09-16T09:40:51.104Z,13.2
2017-09-16T09:41:11.455Z,13.3
2017-09-16T09:41:31.888Z,13.2
2017-09-16T09:41:52.454Z,13.2
2017-09-16T09:42:12.903Z,13.3
2017-09-16T09:42:33.441Z,13.3
2017-09-16T09:42:53.930Z,13.3
2017-09-16T09:43:14.399Z,13.3
2017-09-16T09:43:34.982Z,13.3
2017-09-16T09:43:55.349Z,13.3
2017-09-16T09:44:15.742Z,13.2
2017-09-16T09:44:36.246Z,13.3
2017-09-16T09:44:56.691Z,13.3
2017-09-16T09:45:17.103Z,13.3
2017-09-16T09:45:37.442Z,13.2
2017-09-16T09:45:58.026Z,13.2
2017-09-16T09:46:18.364Z,13.2
2017-09-16T09:46:38.868Z,13.2
2017-09-16T09:46:59.276Z,13.2
2017-09-16T09:47:19.742Z,13.3
2017-09-16T09:47:40.306Z,13.2
2017-09-16T09:48:00.690Z,13.2
2017-09-16T09:48:21.043Z,13.2
2017-09-16T09:48:41.398Z,13.2
2017-09-16T09:49:01.825Z,13.2
2017-09-16T09:49:22.254Z,13.2
2017-09-16T09:49:42.685Z,13.2
2017-09-16T09:50:03.155Z,13.3
2017-09-16T09:50:23.744Z,13.3
2017-09-16T09:50:44.218Z,13.2
2017-09-16T09:51:04.628Z,13.3
2017-09-16T09:51:25.090Z,13.2
2017-09-16T09:51:45.675Z,13.3
2017-09-16T09:52:06.369Z,13.2
2017-09-16T09:52:27.048Z,13.3
2017-09-16T09:53:07.054Z,13.3
2017-09-16T09:53:27.516Z,13.2
2017-09-16T09:53:47.944Z,13.3
2017-09-16T09:54:08.441Z,13.2
2017-09-16T09:54:28.840Z,13.3
2017-09-16T09:54:49.217Z,13.3
2017-09-16T09:55:09.629Z,13.2
2017-09-16T09:55:30.050Z,13.2
2017-09-16T09:55:50.547Z,13.2
2017-09-16T09:56:11.003Z,13.1
2017-09-16T09:56:31.546Z,13.2
2017-09-16T09:56:52.185Z,13.2
2017-09-16T09:57:12.688Z,13.2
2017-09-16T09:57:33.172Z,13.2
2017-09-16T09:57:53.636Z,13.3
2017-09-16T09:58:14.044Z,13.3
2017-09-16T09:58:34.442Z,13.3
2017-09-16T09:58:54.973Z,13.3
2017-09-16T09:59:15.370Z,13.4
2017-09-16T09:59:35.780Z,13.3
2017-09-16T09:59:56.223Z,13.3
2017-09-16T10:00:16.629Z,13.4
2017-09-16T10:00:37.250Z,13.4
2017-09-16T10:00:57.679Z,13.4
2017-09-16T10:01:17.971Z,13.4
2017-09-16T10:01:38.578Z,13.4
2017-09-16T10:01:58.990Z,13.5
2017-09-16T10:02:19.447Z,13.4
2017-09-16T10:02:39.847Z,13.5
2017-09-16T10:03:00.289Z,13.5
2017-09-16T10:03:20.806Z,13.5
2017-09-16T10:03:41.389Z,13.5
2017-09-16T10:04:01.802Z,13.5
2017-09-16T10:04:22.349Z,13.5
2017-09-16T10:04:42.932Z,13.4
2017-09-16T10:05:03.468Z,13.5
2017-09-16T10:05:24.002Z,13.5
2017-09-16T10:05:44.441Z,13.6
2017-09-16T10:06:04.846Z,13.5
2017-09-16T10:06:25.390Z,13.6
2017-09-16T10:06:45.967Z,13.6
2017-09-16T10:07:06.432Z,13.7
2017-09-16T10:07:26.978Z,13.6
2017-09-16T10:07:47.319Z,13.6
2017-09-16T10:08:07.681Z,13.6
2017-09-16T10:08:28.182Z,13.6
2017-09-16T10:08:48.719Z,13.7
2017-09-16T10:09:09.154Z,13.7
2017-09-16T10:09:29.508Z,13.7
2017-09-16T10:09:49.890Z,13.7
2017-09-16T10:10:10.480Z,13.7
2017-09-16T10:10:30.830Z,13.7
2017-09-16T10:10:51.237Z,13.7
2017-09-16T10:11:11.680Z,13.7
2017-09-16T10:11:32.308Z,13.7
2017-09-16T10:11:52.893Z,13.8
2017-09-16T10:12:13.329Z,13.7
2017-09-16T10:12:33.748Z,13.8
2017-09-16T10:12:54.238Z,13.8
2017-09-16T10:13:34.174Z,13.9
2017-09-16T10:13:54.560Z,13.9
2017-09-16T10:14:14.979Z,13.9
2017-09-16T10:14:35.318Z,13.9
2017-09-16T10:14:55.719Z,13.9
2017-09-16T10:15:16.113Z,13.9
2017-09-16T10:15:36.451Z,13.9
2017-09-16T10:15:56.886Z,13.9
2017-09-16T10:16:17.274Z,13.9
2017-09-16T10:16:37.617Z,14
2017-09-16T10:16:57.884Z,14
2017-09-16T10:17:18.432Z,14
2017-09-16T10:17:38.932Z,14
2017-09-16T10:17:59.398Z,14.1
2017-09-16T10:18:19.812Z,14
2017-09-16T10:18:40.306Z,14.1
2017-09-16T10:19:00.974Z,14
2017-09-16T10:19:21.435Z,14
2017-09-16T10:19:41.798Z,14.1
2017-09-16T10:20:02.299Z,14
2017-09-16T10:20:22.669Z,14.1
2017-09-16T10:20:43.120Z,14.2
2017-09-16T10:21:03.707Z,14.2
2017-09-16T10:21:24.110Z,14.2
2017-09-16T10:21:44.534Z,14.2
2017-09-16T10:22:05.022Z,14.2
2017-09-16T10:22:25.497Z,14.2
2017-09-16T10:22:45.975Z,14.1
2017-09-16T10:23:06.361Z,14.1
2017-09-16T10:23:26.946Z,14.1
2017-09-16T10:23:47.641Z,14.2
2017-09-16T10:24:08.132Z,14.2
2017-09-16T10:24:28.458Z,14.1
2017-09-16T10:24:48.831Z,14.1
2017-09-16T10:25:09.449Z,14.1
2017-09-16T10:25:29.851Z,14.1
2017-09-16T10:25:50.347Z,14.1
2017-09-16T10:26:10.724Z,14.1
2017-09-16T10:26:31.176Z,14.2
2017-09-16T10:26:51.569Z,14.2
2017-09-16T10:27:12.026Z,14.2
2017-09-16T10:27:32.497Z,14.2
2017-09-16T10:27:52.847Z,14.2
2017-09-16T10:28:13.334Z,14.3
2017-09-16T10:28:33.789Z,14.3
2017-09-16T10:28:54.241Z,14.4
2017-09-16T10:29:14.697Z,14.3
2017-09-16T10:29:35.101Z,14.3
2017-09-16T10:29:55.549Z,14.4
2017-09-16T10:30:16.088Z,14.3
2017-09-16T10:30:36.591Z,14.4
2017-09-16T10:30:57.249Z,14.4
2017-09-16T10:31:17.742Z,14.3
2017-09-16T10:31:38.198Z,14.3
2017-09-16T10:31:58.728Z,14.2
2017-09-16T10:32:19.164Z,14.3
2017-09-16T10:32:39.560Z,14.2
2017-09-16T10:33:00.110Z,14.2
2017-09-16T10:33:20.547Z,14.1
2017-09-16T10:33:40.987Z,14.1
2017-09-16T10:34:01.398Z,14.2
2017-09-16T10:34:21.760Z,14.1
2017-09-16T10:34:42.259Z,14.1
2017-09-16T10:35:02.691Z,14
2017-09-16T10:35:22.998Z,14
2017-09-16T10:35:43.387Z,14
2017-09-16T10:36:03.888Z,14
2017-09-16T10:36:24.245Z,14
2017-09-16T10:36:44.718Z,14
2017-09-16T10:37:05.232Z,14
2017-09-16T10:37:25.678Z,14.1
2017-09-16T10:37:46.064Z,14.2
2017-09-16T10:38:06.427Z,14.2
2017-09-16T10:38:26.851Z,14.2
2017-09-16T10:38:47.214Z,14.2
2017-09-16T10:39:07.614Z,14.1
2017-09-16T10:39:27.961Z,14.1
2017-09-16T10:39:48.353Z,14.1
2017-09-16T10:40:09.086Z,14.2
2017-09-16T10:40:29.421Z,14.2
2017-09-16T10:40:49.854Z,14.3
2017-09-16T10:41:10.287Z,14.2
2017-09-16T10:41:30.645Z,14.3
2017-09-16T10:41:51.079Z,14.3
2017-09-16T10:42:11.392Z,14.4
2017-09-16T10:42:31.831Z,14.4
2017-09-16T10:42:52.163Z,14.3
2017-09-16T10:43:12.499Z,14.5
2017-09-16T10:43:32.900Z,14.5
2017-09-16T10:43:53.224Z,14.6
2017-09-16T10:44:13.704Z,14.6
2017-09-16T10:44:34.230Z,14.6
2017-09-16T10:44:54.570Z,14.6
2017-09-16T10:45:14.947Z,14.7
2017-09-16T10:45:35.337Z,14.7
2017-09-16T10:45:55.716Z,14.7
2017-09-16T10:46:16.141Z,14.8
2017-09-16T10:46:36.467Z,14.7